Time;durP1;ratioP1;P1;durP2;ratioP2;P2;SDS_P1;SDS_P2;PMS_P1;PMS_P2;Temp;Humidity;BMP_temperature;BMP_pressure;BME280_temperature;BME280_humidity;BME280_pressure;Samples;Min_cycle;Max_cycle;Signal;HPM_P1;HPM_P2
2023/07/30 00:02:37;;;;;;;5.3;2.7;;;;;;;18.44;82.97;;;;;
2023/07/30 00:12:37;;;;;;;5.3;2.7;;;;;;;18.41;83.53;;;;;
2023/07/30 00:23:37;;;;;;;5.3;2.7;;;;;;;18.53;82.78;;;;;
2023/07/30 00:34:37;;;;;;;4.9;2.5;;;;;;;18.5;82.73;;;;;
2023/07/30 00:45:37;;;;;;;4.9;2.5;;;;;;;18.67;83.15;;;;;
2023/07/30 00:55:37;;;;;;;5.8;2.9;;;;;;;18.5;84.24;;;;;
2023/07/30 01:06:37;;;;;;;5.8;2.9;;;;;;;18.34;85.51;;;;;
2023/07/30 01:17:37;;;;;;;5.8;2.9;;;;;;;18.46;85.22;;;;;
2023/07/30 01:27:37;;;;;;;8.1;3.7;;;;;;;18.46;84.11;;;;;
2023/07/30 01:38:37;;;;;;;8.1;3.7;;;;;;;18.54;83.08;;;;;
2023/07/30 01:48:37;;;;;;;8.1;3.7;;;;;;;18.64;82.42;;;;;
2023/07/30 01:58:37;;;;;;;5.3;2.3;;;;;;;18.53;82.49;;;;;
2023/07/30 02:08:37;;;;;;;5.3;2.3;;;;;;;18.26;83.33;;;;;
2023/07/30 02:18:37;;;;;;;5.3;2.3;;;;;;;18.31;83.07;;;;;
2023/07/30 02:29:37;;;;;;;3.9;1.8;;;;;;;18.13;82.98;;;;;
2023/07/30 02:40:37;;;;;;;3.9;1.8;;;;;;;17.76;83.24;;;;;
2023/07/30 02:50:37;;;;;;;3.9;1.8;;;;;;;17.46;83.51;;;;;
2023/07/30 03:00:37;;;;;;;5.4;2.4;;;;;;;17.25;84.17;;;;;
2023/07/30 03:11:37;;;;;;;5.4;2.4;;;;;;;17.11;85.59;;;;;
2023/07/30 03:22:37;;;;;;;5.4;2.4;;;;;;;16.99;86.99;;;;;
2023/07/30 03:32:43;;;;;;;7;2.8;;;;;;;17.01;87.2;;;;;
2023/07/30 03:43:38;;;;;;;7;2.8;;;;;;;17.11;88.02;;;;;
2023/07/30 03:54:38;;;;;;;7.8;3;;;;;;;17.35;88.24;;;;;
2023/07/30 04:05:38;;;;;;;7.8;3;;;;;;;17.54;87.4;;;;;
2023/07/30 04:16:38;;;;;;;7.8;3;;;;;;;17.76;86.69;;;;;
2023/07/30 04:27:38;;;;;;;4.6;2;;;;;;;18.04;86.03;;;;;
2023/07/30 04:37:38;;;;;;;4.6;2;;;;;;;18.29;84.42;;;;;
2023/07/30 04:48:38;;;;;;;4.6;2;;;;;;;18.79;83.15;;;;;
2023/07/30 04:59:39;;;;;;;5.5;2.6;;;;;;;19;81.73;;;;;
2023/07/30 05:10:38;;;;;;;5.5;2.6;;;;;;;19.13;81.5;;;;;
2023/07/30 05:21:39;;;;;;;5.5;2.6;;;;;;;19.44;80.9;;;;;
2023/07/30 05:31:39;;;;;;;4.1;1.7;;;;;;;19.74;79.75;;;;;
2023/07/30 05:42:38;;;;;;;4.1;1.7;;;;;;;20.32;76.36;;;;;
2023/07/30 05:52:39;;;;;;;4.1;1.7;;;;;;;20.86;74.22;;;;;
2023/07/30 06:02:39;;;;;;;3.4;1.7;;;;;;;20.97;71.86;;;;;
2023/07/30 06:13:38;;;;;;;3.4;1.7;;;;;;;21.26;72.52;;;;;
2023/07/30 06:23:39;;;;;;;3.4;1.7;;;;;;;21.42;73.46;;;;;
2023/07/30 06:34:39;;;;;;;4.5;2.3;;;;;;;21.85;73.46;;;;;
2023/07/30 06:45:39;;;;;;;4.5;2.3;;;;;;;22.21;70.05;;;;;
2023/07/30 06:56:39;;;;;;;5.9;3.1;;;;;;;22.13;69;;;;;
2023/07/30 07:06:39;;;;;;;5.9;3.1;;;;;;;22.52;69.29;;;;;
2023/07/30 07:17:39;;;;;;;5.9;3.1;;;;;;;22.57;68.73;;;;;
2023/07/30 07:27:39;;;;;;;4.6;2.1;;;;;;;23.06;69.06;;;;;
2023/07/30 07:38:39;;;;;;;4.6;2.1;;;;;;;23.34;67.58;;;;;
2023/07/30 07:48:39;;;;;;;4.6;2.1;;;;;;;23.63;64.62;;;;;
2023/07/30 07:58:39;;;;;;;3.8;1.7;;;;;;;23.7;63.86;;;;;
2023/07/30 08:08:39;;;;;;;3.8;1.7;;;;;;;24.13;65.15;;;;;
2023/07/30 08:19:39;;;;;;;3.8;1.7;;;;;;;24.67;61.4;;;;;
2023/07/30 08:30:39;;;;;;;3.5;1.6;;;;;;;25.18;60.64;;;;;
2023/07/30 08:41:39;;;;;;;3.5;1.6;;;;;;;25.13;58.41;;;;;
2023/07/30 08:51:39;;;;;;;3.5;1.6;;;;;;;24.98;62.05;;;;;
2023/07/30 09:01:39;;;;;;;4.3;1.5;;;;;;;25.48;56.35;;;;;
2023/07/30 09:12:39;;;;;;;4.3;1.5;;;;;;;25.81;58.13;;;;;
2023/07/30 09:23:39;;;;;;;4.3;1.5;;;;;;;25.75;57.89;;;;;
2023/07/30 09:34:39;;;;;;;4;1.6;;;;;;;26.3;55.63;;;;;
2023/07/30 09:45:39;;;;;;;4;1.6;;;;;;;26.2;56.28;;;;;
2023/07/30 09:55:39;;;;;;;3.2;1.4;;;;;;;26.64;55.89;;;;;
2023/07/30 10:05:39;;;;;;;3.2;1.4;;;;;;;26.61;54.05;;;;;
2023/07/30 10:16:39;;;;;;;3.2;1.4;;;;;;;26.84;54.47;;;;;
2023/07/30 10:27:39;;;;;;;3.3;1.5;;;;;;;27.05;54.04;;;;;
2023/07/30 10:38:39;;;;;;;3.3;1.5;;;;;;;27.21;51.16;;;;;
2023/07/30 10:48:39;;;;;;;3.3;1.5;;;;;;;27.45;49.4;;;;;
2023/07/30 10:58:39;;;;;;;3;1.4;;;;;;;28.03;49.6;;;;;
2023/07/30 11:09:39;;;;;;;3;1.4;;;;;;;28.23;47.58;;;;;
2023/07/30 11:19:39;;;;;;;3;1.4;;;;;;;28.16;48.44;;;;;
2023/07/30 11:30:39;;;;;;;2.9;1.4;;;;;;;28.08;49.3;;;;;
2023/07/30 11:41:39;;;;;;;2.9;1.4;;;;;;;27.65;48.13;;;;;
2023/07/30 11:51:39;;;;;;;2.9;1.4;;;;;;;27.48;48.52;;;;;
2023/07/30 12:01:39;;;;;;;2.2;1.2;;;;;;;27.06;48.42;;;;;
2023/07/30 12:12:39;;;;;;;2.2;1.2;;;;;;;27.07;50.66;;;;;
2023/07/30 12:22:39;;;;;;;2.2;1.2;;;;;;;26.78;50.83;;;;;
2023/07/30 12:33:39;;;;;;;2.7;1.4;;;;;;;26.84;50.98;;;;;
2023/07/30 12:43:39;;;;;;;2.7;1.4;;;;;;;26.25;51.88;;;;;
2023/07/30 12:53:39;;;;;;;2.7;1.4;;;;;;;25.93;51.34;;;;;
2023/07/30 13:04:39;;;;;;;2.9;1.4;;;;;;;26.64;50.2;;;;;
2023/07/30 13:15:39;;;;;;;2.9;1.4;;;;;;;27.03;49.92;;;;;
2023/07/30 13:26:39;;;;;;;5;1.6;;;;;;;26.9;49.35;;;;;
2023/07/30 13:36:39;;;;;;;5;1.6;;;;;;;27.29;47.08;;;;;
2023/07/30 13:47:40;;;;;;;5;1.6;;;;;;;27.27;48.79;;;;;
2023/07/30 13:58:39;;;;;;;2.5;1.5;;;;;;;26.68;49.27;;;;;
2023/07/30 14:09:39;;;;;;;2.5;1.5;;;;;;;26.43;49.99;;;;;
2023/07/30 14:20:39;;;;;;;2.5;1.5;;;;;;;26.61;50.3;;;;;
2023/07/30 14:31:39;;;;;;;5.1;1.8;;;;;;;26.87;52;;;;;
2023/07/30 14:41:39;;;;;;;5.1;1.8;;;;;;;26.3;51.42;;;;;
2023/07/30 14:51:39;;;;;;;5.1;1.8;;;;;;;26.06;52.38;;;;;
2023/07/30 15:02:40;;;;;;;5.5;2.1;;;;;;;25.84;53.07;;;;;
2023/07/30 15:12:39;;;;;;;5.5;2.1;;;;;;;25.92;53.54;;;;;
2023/07/30 15:23:39;;;;;;;5.5;2.1;;;;;;;26.35;52.84;;;;;
2023/07/30 15:33:39;;;;;;;3.9;1.9;;;;;;;27.82;49.29;;;;;
2023/07/30 15:43:39;;;;;;;3.9;1.9;;;;;;;31.44;42.32;;;;;
2023/07/30 15:54:39;;;;;;;3.9;1.9;;;;;;;31.79;41.92;;;;;
2023/07/30 16:04:39;;;;;;;2.3;1.1;;;;;;;32.08;38.36;;;;;
2023/07/30 16:14:39;;;;;;;2.3;1.1;;;;;;;32.06;38.01;;;;;
2023/07/30 16:25:39;;;;;;;2.6;1;;;;;;;28.53;43.83;;;;;
2023/07/30 16:36:39;;;;;;;2.6;1;;;;;;;27.18;48.14;;;;;
2023/07/30 16:46:39;;;;;;;2.6;1;;;;;;;26.9;48.98;;;;;
2023/07/30 16:56:39;;;;;;;3.4;1.5;;;;;;;26.93;47.55;;;;;
2023/07/30 17:06:39;;;;;;;3.4;1.5;;;;;;;25.79;50.24;;;;;
2023/07/30 17:16:39;;;;;;;3.4;1.5;;;;;;;25.42;51.31;;;;;
2023/07/30 17:27:39;;;;;;;3.4;1.4;;;;;;;24.62;54.99;;;;;
2023/07/30 17:37:39;;;;;;;3.4;1.4;;;;;;;23.79;58.31;;;;;
2023/07/30 17:48:39;;;;;;;3.4;1.4;;;;;;;23.28;59.73;;;;;
2023/07/30 17:58:39;;;;;;;3.7;1.5;;;;;;;22.64;61.68;;;;;
2023/07/30 18:09:39;;;;;;;3.7;1.5;;;;;;;22.07;63.13;;;;;
2023/07/30 18:19:39;;;;;;;3.7;1.5;;;;;;;21.59;66.48;;;;;
2023/07/30 18:29:40;;;;;;;4.3;2.2;;;;;;;21.28;68.88;;;;;
2023/07/30 18:40:39;;;;;;;4.3;2.2;;;;;;;21.01;69.82;;;;;
2023/07/30 18:51:39;;;;;;;4.3;2.2;;;;;;;20.81;70.65;;;;;
2023/07/30 19:01:40;;;;;;;4;1.9;;;;;;;20.69;70.25;;;;;
2023/07/30 19:12:39;;;;;;;4;1.9;;;;;;;20.35;72.26;;;;;
2023/07/30 19:23:39;;;;;;;4;1.9;;;;;;;19.95;72.64;;;;;
2023/07/30 19:34:39;;;;;;;5.7;3;;;;;;;19.68;73.74;;;;;
2023/07/30 19:44:39;;;;;;;5.7;3;;;;;;;19.58;75.51;;;;;
2023/07/30 19:54:39;;;;;;;5.7;3;;;;;;;19.47;75.03;;;;;
2023/07/30 20:04:39;;;;;;;4.9;2.6;;;;;;;19.33;74.85;;;;;
2023/07/30 20:15:39;;;;;;;4.9;2.6;;;;;;;19.14;75.53;;;;;
2023/07/30 20:25:39;;;;;;;5.3;2.4;;;;;;;18.99;75.61;;;;;
2023/07/30 20:35:39;;;;;;;5.3;2.4;;;;;;;18.77;77.99;;;;;
2023/07/30 20:46:39;;;;;;;5.3;2.4;;;;;;;18.73;77.76;;;;;
2023/07/30 20:57:39;;;;;;;5.1;2.7;;;;;;;18.7;77.36;;;;;
2023/07/30 21:07:39;;;;;;;5.1;2.7;;;;;;;18.63;77.74;;;;;
2023/07/30 21:18:39;;;;;;;5.1;2.7;;;;;;;18.55;77.77;;;;;
2023/07/30 21:28:39;;;;;;;4.8;2.7;;;;;;;18.46;79.17;;;;;
2023/07/30 21:39:39;;;;;;;4.8;2.7;;;;;;;18.45;78.82;;;;;
2023/07/30 21:49:39;;;;;;;4.8;2.7;;;;;;;18.38;78.65;;;;;
2023/07/30 22:00:39;;;;;;;4.2;2.3;;;;;;;18.21;78.25;;;;;
2023/07/30 22:11:39;;;;;;;4.2;2.3;;;;;;;17.98;78.84;;;;;
2023/07/30 22:22:39;;;;;;;4.2;2.3;;;;;;;17.88;78.05;;;;;
2023/07/30 22:33:39;;;;;;;5.5;2.9;;;;;;;17.61;78.58;;;;;
2023/07/30 22:44:39;;;;;;;5.5;2.9;;;;;;;17.29;79.3;;;;;
2023/07/30 22:54:39;;;;;;;5.5;2.9;;;;;;;17.11;81.77;;;;;
2023/07/30 23:04:39;;;;;;;5.5;2.8;;;;;;;17.13;82.43;;;;;
2023/07/30 23:15:39;;;;;;;5.5;2.8;;;;;;;17.21;83.05;;;;;
2023/07/30 23:25:39;;;;;;;5.8;2.6;;;;;;;17.3;82.91;;;;;
2023/07/30 23:35:39;;;;;;;5.8;2.6;;;;;;;17.25;83.25;;;;;
2023/07/30 23:45:39;;;;;;;5.8;2.6;;;;;;;17.29;83.02;;;;;
2023/07/30 23:55:39;;;;;;;5.2;2.4;;;;;;;17.24;82.21;;;;;
